Search for airport 
image banner adimage banner adimage banner ad
image banner ad

29IA - Hilltop

Located in Sidney, United States

ICAO - 29IA, IATA -

Data provided by Airmate  

General information

Coordinates: N40°45'23" W95°37'25"
Elevation is 1120 feet MSL.
 
View others Airports in Iowa

Operational data

Special qualification required
Current time UTC:
Current local time:
Weather at : KSDA - Shenandoah Muni ( 18 km )
METAR: KSDA 181815Z AUTO 13010G17KT CLR 32/19 A2976 RMK AO2
View NOTAMs / SUP AIP / TFR affecting this airport [VIEW]
Communications frequencies: [VIEW]

Runways:

RWY identifierQFULength (ft)Width (ft)SurfaceLDA (ft)
17173°304980GRASS
35353°304980GRASS

Airport contact information

Address: Sidney United States

Satellite view of 29IA